createdAt,value
2023-03-22T00:00:37.554Z,0
2023-03-22T00:01:37.337Z,0
2023-03-22T00:02:37.347Z,0
2023-03-22T00:03:37.354Z,0
2023-03-22T00:04:37.319Z,0
2023-03-22T00:05:37.356Z,0
2023-03-22T00:06:37.330Z,0
2023-03-22T00:07:37.332Z,0
2023-03-22T00:08:37.318Z,0
2023-03-22T00:09:37.322Z,0
2023-03-22T00:10:37.535Z,0
2023-03-22T00:11:37.320Z,0
2023-03-22T00:12:37.374Z,0
2023-03-22T00:13:37.328Z,0
2023-03-22T00:14:37.334Z,0
2023-03-22T00:15:37.317Z,0
2023-03-22T00:16:37.330Z,0
2023-03-22T00:17:37.336Z,0
2023-03-22T00:18:37.328Z,0
2023-03-22T00:19:37.337Z,0
2023-03-22T00:20:37.805Z,0
2023-03-22T00:21:37.331Z,0
2023-03-22T00:22:37.326Z,0
2023-03-22T00:23:37.335Z,0
2023-03-22T00:24:37.330Z,0
2023-03-22T00:25:37.329Z,0
2023-03-22T00:26:37.346Z,0
2023-03-22T00:27:37.332Z,0
2023-03-22T00:28:37.450Z,0
2023-03-22T00:29:37.338Z,0
2023-03-22T00:30:37.605Z,0
2023-03-22T00:31:37.450Z,0
2023-03-22T00:32:37.349Z,0
2023-03-22T00:33:37.335Z,0
2023-03-22T00:34:37.348Z,0
2023-03-22T00:35:37.376Z,0
2023-03-22T00:36:37.344Z,0
2023-03-22T00:37:37.342Z,0
2023-03-22T00:38:45.118Z,0
2023-03-22T00:39:37.337Z,0
2023-03-22T00:40:37.626Z,0
2023-03-22T00:41:37.346Z,0
2023-03-22T00:42:37.350Z,0
2023-03-22T00:43:37.357Z,0
2023-03-22T00:44:37.487Z,0
2023-03-22T00:45:37.350Z,0
2023-03-22T00:46:37.387Z,0
2023-03-22T00:47:37.352Z,0
2023-03-22T00:48:37.360Z,0
2023-03-22T00:49:37.380Z,0
2023-03-22T00:50:37.568Z,0
2023-03-22T00:51:37.359Z,0
2023-03-22T00:52:37.365Z,0
2023-03-22T00:53:37.352Z,0
2023-03-22T00:54:37.364Z,0
2023-03-22T00:55:37.356Z,0
2023-03-22T00:56:37.373Z,0
2023-03-22T00:57:37.357Z,0
2023-03-22T00:58:37.369Z,0
2023-03-22T00:59:37.363Z,0
2023-03-22T01:00:37.672Z,0
2023-03-22T01:01:37.424Z,0
2023-03-22T01:02:37.383Z,0
2023-03-22T01:03:37.400Z,0
2023-03-22T01:04:37.376Z,0
2023-03-22T01:05:37.373Z,0
2023-03-22T01:06:37.387Z,0
2023-03-22T01:07:37.364Z,0
2023-03-22T01:08:37.362Z,0
2023-03-22T01:09:37.376Z,0
2023-03-22T01:10:37.550Z,0
2023-03-22T01:11:37.373Z,0
2023-03-22T01:12:37.376Z,0
2023-03-22T01:13:37.377Z,0
2023-03-22T01:14:37.381Z,0
2023-03-22T01:15:37.378Z,0
2023-03-22T01:16:37.453Z,0
2023-03-22T01:17:37.377Z,0
2023-03-22T01:18:37.379Z,0
2023-03-22T01:19:37.374Z,0
2023-03-22T01:20:37.532Z,0
2023-03-22T01:21:37.370Z,0
2023-03-22T01:22:37.379Z,0
2023-03-22T01:23:37.378Z,0
2023-03-22T01:24:37.384Z,0
2023-03-22T01:25:37.386Z,0
2023-03-22T01:26:37.382Z,0
2023-03-22T01:27:37.385Z,0
2023-03-22T01:28:37.388Z,0
2023-03-22T01:29:37.377Z,0
2023-03-22T01:30:37.653Z,0
2023-03-22T01:31:37.379Z,0
2023-03-22T01:32:37.414Z,0
2023-03-22T01:33:37.389Z,0
2023-03-22T01:34:37.388Z,0
2023-03-22T01:35:37.459Z,0
2023-03-22T01:36:37.384Z,0
2023-03-22T01:37:37.408Z,0
2023-03-22T01:38:37.420Z,0
2023-03-22T01:39:37.397Z,0
2023-03-22T01:40:37.633Z,0
2023-03-22T01:41:37.409Z,0
2023-03-22T01:42:37.397Z,0
2023-03-22T01:43:37.399Z,0
2023-03-22T01:44:37.402Z,0
2023-03-22T01:45:37.394Z,0
2023-03-22T01:46:37.499Z,0
2023-03-22T01:47:37.414Z,0
2023-03-22T01:48:37.510Z,0
2023-03-22T01:49:37.410Z,0
2023-03-22T01:50:37.625Z,0
2023-03-22T01:51:37.411Z,0
2023-03-22T01:52:37.425Z,0
2023-03-22T01:53:37.401Z,0
2023-03-22T01:54:37.405Z,0
2023-03-22T01:55:37.416Z,0
2023-03-22T01:56:37.412Z,0
2023-03-22T01:57:37.420Z,0
2023-03-22T01:58:37.430Z,0
2023-03-22T01:59:37.420Z,0
2023-03-22T02:00:37.712Z,0
2023-03-22T02:01:37.440Z,0
2023-03-22T02:02:37.495Z,0
2023-03-22T02:03:37.424Z,0
2023-03-22T02:04:37.452Z,0
2023-03-22T02:05:37.520Z,0
2023-03-22T02:06:37.418Z,0
2023-03-22T02:07:37.443Z,0
2023-03-22T02:08:37.424Z,0
2023-03-22T02:09:37.431Z,0
2023-03-22T02:10:37.587Z,0
2023-03-22T02:11:37.425Z,0
2023-03-22T02:12:37.418Z,0
2023-03-22T02:13:37.427Z,0
2023-03-22T02:14:37.422Z,0
2023-03-22T02:15:37.558Z,0
2023-03-22T02:16:37.421Z,0
2023-03-22T02:17:37.420Z,0
2023-03-22T02:18:37.444Z,0
2023-03-22T02:19:37.425Z,0
2023-03-22T02:20:37.700Z,0
2023-03-22T02:21:37.452Z,0
2023-03-22T02:22:37.431Z,0
2023-03-22T02:23:37.448Z,0
2023-03-22T02:24:37.432Z,0
2023-03-22T02:25:37.438Z,0
2023-03-22T02:26:37.431Z,0
2023-03-22T02:27:37.425Z,0
2023-03-22T02:28:37.442Z,0
2023-03-22T02:29:37.434Z,0
2023-03-22T02:30:37.929Z,0
2023-03-22T02:31:37.539Z,0
2023-03-22T02:32:37.436Z,0
2023-03-22T02:33:38.270Z,0
2023-03-22T02:34:37.441Z,0
2023-03-22T02:35:37.443Z,0
2023-03-22T02:36:37.468Z,0
2023-03-22T02:37:37.458Z,0
2023-03-22T02:38:37.439Z,0
2023-03-22T02:39:37.433Z,0
2023-03-22T02:40:37.753Z,0
2023-03-22T02:41:37.441Z,0
2023-03-22T02:42:37.446Z,0
2023-03-22T02:43:37.442Z,0
2023-03-22T02:44:37.445Z,0
2023-03-22T02:45:37.444Z,0
2023-03-22T02:46:37.482Z,0
2023-03-22T02:47:37.490Z,0
2023-03-22T02:48:37.481Z,0
2023-03-22T02:49:37.444Z,0
2023-03-22T02:50:37.747Z,0
2023-03-22T02:51:37.445Z,0
2023-03-22T02:52:37.493Z,0
2023-03-22T02:53:37.459Z,0
2023-03-22T02:54:37.461Z,0
2023-03-22T02:55:37.458Z,0
2023-03-22T02:56:37.443Z,0
2023-03-22T02:57:37.445Z,0
2023-03-22T02:58:37.455Z,0
2023-03-22T02:59:37.461Z,0
2023-03-22T03:00:37.780Z,0
2023-03-22T03:01:37.503Z,0
2023-03-22T03:02:37.449Z,0
2023-03-22T03:03:37.462Z,0
2023-03-22T03:04:37.450Z,0
2023-03-22T03:05:37.449Z,0
2023-03-22T03:06:37.452Z,0
2023-03-22T03:07:37.472Z,0
2023-03-22T03:08:37.486Z,0
2023-03-22T03:09:37.453Z,0
2023-03-22T03:10:37.722Z,0
2023-03-22T03:11:37.457Z,0
2023-03-22T03:12:37.462Z,0
2023-03-22T03:13:37.456Z,0
2023-03-22T03:14:37.458Z,0
2023-03-22T03:15:37.461Z,0
2023-03-22T03:16:37.507Z,0
2023-03-22T03:17:37.474Z,0
2023-03-22T03:18:37.463Z,0
2023-03-22T03:19:37.460Z,0
2023-03-22T03:20:37.715Z,0
2023-03-22T03:21:37.456Z,0
2023-03-22T03:22:37.460Z,0
2023-03-22T03:23:37.456Z,0
2023-03-22T03:24:37.475Z,0
2023-03-22T03:25:37.470Z,0
2023-03-22T03:26:37.483Z,0
2023-03-22T03:27:37.469Z,0
2023-03-22T03:28:37.457Z,0
2023-03-22T03:29:37.462Z,0
2023-03-22T03:30:37.636Z,0
2023-03-22T03:31:37.503Z,0
2023-03-22T03:32:37.458Z,0
2023-03-22T03:33:37.487Z,0
2023-03-22T03:34:37.475Z,0
2023-03-22T03:35:37.528Z,0
2023-03-22T03:36:37.458Z,0
2023-03-22T03:37:37.459Z,0
2023-03-22T03:38:37.463Z,0
2023-03-22T03:39:37.469Z,0
2023-03-22T03:40:37.836Z,0
2023-03-22T03:41:37.467Z,0
2023-03-22T03:42:37.460Z,0
2023-03-22T03:43:37.482Z,0
2023-03-22T03:44:37.471Z,0
2023-03-22T03:45:37.528Z,0
2023-03-22T03:46:37.481Z,0
2023-03-22T03:47:37.478Z,0
2023-03-22T03:48:37.480Z,0
2023-03-22T03:49:37.469Z,0
2023-03-22T03:50:37.695Z,0
2023-03-22T03:51:37.466Z,0
2023-03-22T03:52:37.481Z,0
2023-03-22T03:53:37.472Z,0
2023-03-22T03:54:37.483Z,0
2023-03-22T03:55:37.482Z,0
2023-03-22T03:56:37.515Z,0
2023-03-22T03:57:37.476Z,0
2023-03-22T03:58:37.480Z,0
2023-03-22T03:59:37.487Z,0
2023-03-22T04:00:37.599Z,0
2023-03-22T04:01:37.496Z,0
2023-03-22T04:02:37.546Z,0
2023-03-22T04:03:37.477Z,0
2023-03-22T04:04:37.508Z,0
2023-03-22T04:05:37.484Z,0
2023-03-22T04:06:37.479Z,0
2023-03-22T04:07:37.473Z,0
2023-03-22T04:08:37.491Z,0
2023-03-22T04:09:37.489Z,0
2023-03-22T04:10:37.716Z,0
2023-03-22T04:11:37.490Z,0
2023-03-22T04:12:37.624Z,0
2023-03-22T04:13:37.489Z,0
2023-03-22T04:14:37.495Z,0
2023-03-22T04:15:37.479Z,0
2023-03-22T04:16:37.523Z,0
2023-03-22T04:17:37.485Z,0
2023-03-22T04:18:37.483Z,0
2023-03-22T04:19:37.493Z,0
2023-03-22T04:20:37.765Z,0
2023-03-22T04:21:37.485Z,0
2023-03-22T04:22:37.486Z,0
2023-03-22T04:23:37.489Z,0
2023-03-22T04:24:37.503Z,0
2023-03-22T04:25:37.477Z,0
2023-03-22T04:26:37.491Z,0
2023-03-22T04:27:37.493Z,0
2023-03-22T04:28:37.519Z,0
2023-03-22T04:29:37.497Z,0
2023-03-22T04:30:37.727Z,0
2023-03-22T04:31:37.487Z,0
2023-03-22T04:32:37.491Z,0
2023-03-22T04:33:37.476Z,0
2023-03-22T04:34:37.508Z,0
2023-03-22T04:35:37.506Z,0
2023-03-22T04:36:37.483Z,0
2023-03-22T04:37:37.489Z,0
2023-03-22T04:38:37.499Z,0
2023-03-22T04:39:37.484Z,0
2023-03-22T04:40:38.115Z,0
2023-03-22T04:41:37.483Z,0
2023-03-22T04:42:37.484Z,0
2023-03-22T04:43:37.487Z,0
2023-03-22T04:44:37.510Z,0
2023-03-22T04:45:37.484Z,0
2023-03-22T04:46:37.514Z,0
2023-03-22T04:47:37.487Z,0
2023-03-22T04:48:37.485Z,0
2023-03-22T04:49:37.493Z,0
2023-03-22T04:50:37.727Z,0
2023-03-22T04:51:37.488Z,0
2023-03-22T04:52:37.500Z,0
2023-03-22T04:53:37.492Z,0
2023-03-22T04:54:37.502Z,0
2023-03-22T04:55:37.501Z,0
2023-03-22T04:56:37.493Z,0
2023-03-22T04:57:37.493Z,0
2023-03-22T04:58:37.490Z,0
2023-03-22T04:59:37.494Z,0
2023-03-22T05:00:37.876Z,0
2023-03-22T05:01:37.616Z,0
2023-03-22T05:02:39.387Z,0
2023-03-22T05:03:37.495Z,0
2023-03-22T05:04:37.498Z,0
2023-03-22T05:05:37.493Z,0
2023-03-22T05:06:37.504Z,0
2023-03-22T05:07:37.491Z,0
2023-03-22T05:08:37.507Z,0
2023-03-22T05:09:37.495Z,0
2023-03-22T05:10:37.868Z,0
2023-03-22T05:11:37.508Z,0
2023-03-22T05:12:37.505Z,0
2023-03-22T05:13:37.504Z,0
2023-03-22T05:14:37.577Z,0
2023-03-22T05:15:37.549Z,0
2023-03-22T05:16:37.518Z,0
2023-03-22T05:17:37.499Z,0
2023-03-22T05:18:37.498Z,0
2023-03-22T05:19:37.516Z,0
2023-03-22T05:20:37.724Z,0
2023-03-22T05:21:37.518Z,0
2023-03-22T05:22:37.507Z,0
2023-03-22T05:23:37.505Z,0
2023-03-22T05:24:37.503Z,0
2023-03-22T05:25:37.508Z,0
2023-03-22T05:26:37.506Z,0
2023-03-22T05:27:37.504Z,0
2023-03-22T05:28:37.515Z,0
2023-03-22T05:29:37.508Z,0
2023-03-22T05:30:37.703Z,0
2023-03-22T05:31:37.628Z,0
2023-03-22T05:32:37.623Z,0
2023-03-22T05:33:37.507Z,0
2023-03-22T05:34:37.525Z,0
2023-03-22T05:35:37.550Z,0
2023-03-22T05:36:37.519Z,0
2023-03-22T05:37:37.516Z,0
2023-03-22T05:38:37.505Z,0
2023-03-22T05:39:37.507Z,0
2023-03-22T05:40:38.011Z,0
2023-03-22T05:41:37.509Z,0
2023-03-22T05:42:37.510Z,0
2023-03-22T05:43:37.512Z,0
2023-03-22T05:44:37.512Z,0
2023-03-22T05:45:37.510Z,0
2023-03-22T05:46:37.539Z,0
2023-03-22T05:47:37.512Z,0
2023-03-22T05:48:37.592Z,0
2023-03-22T05:49:37.511Z,0
2023-03-22T05:50:37.770Z,0
2023-03-22T05:51:37.513Z,0
2023-03-22T05:52:37.528Z,0
2023-03-22T05:53:37.519Z,0
2023-03-22T05:54:37.511Z,0
2023-03-22T05:55:37.515Z,0
2023-03-22T05:56:37.520Z,0
2023-03-22T05:57:37.513Z,0
2023-03-22T05:58:37.520Z,0
2023-03-22T05:59:37.519Z,0
2023-03-22T06:00:37.699Z,0
2023-03-22T06:01:37.559Z,0
2023-03-22T06:02:37.520Z,0
2023-03-22T06:03:37.584Z,0
2023-03-22T06:04:37.543Z,0
2023-03-22T06:05:37.534Z,0
2023-03-22T06:06:37.520Z,0
2023-03-22T06:07:37.550Z,0
2023-03-22T06:08:37.555Z,0
2023-03-22T06:09:37.533Z,0
2023-03-22T06:10:37.609Z,0
2023-03-22T06:11:37.539Z,0
2023-03-22T06:12:37.526Z,0
2023-03-22T06:13:37.580Z,0
2023-03-22T06:14:37.534Z,0
2023-03-22T06:15:37.531Z,0
2023-03-22T06:16:37.649Z,0
2023-03-22T06:17:37.530Z,0
2023-03-22T06:18:37.543Z,0
2023-03-22T06:19:37.538Z,0
2023-03-22T06:20:37.964Z,0
2023-03-22T06:21:37.545Z,0
2023-03-22T06:22:37.544Z,0
2023-03-22T06:23:37.540Z,0
2023-03-22T06:24:37.541Z,0
2023-03-22T06:25:37.546Z,0
2023-03-22T06:26:37.589Z,0
2023-03-22T06:27:37.550Z,0
2023-03-22T06:28:37.569Z,0
2023-03-22T06:29:37.555Z,0
2023-03-22T06:30:37.756Z,0
2023-03-22T06:31:37.538Z,0
2023-03-22T06:32:37.546Z,0
2023-03-22T06:33:37.547Z,0
2023-03-22T06:34:37.552Z,0
2023-03-22T06:35:37.644Z,0
2023-03-22T06:36:37.568Z,0
2023-03-22T06:37:37.558Z,0
2023-03-22T06:38:37.560Z,0
2023-03-22T06:39:37.551Z,0
2023-03-22T06:40:37.745Z,0
2023-03-22T06:41:37.555Z,0
2023-03-22T06:42:37.549Z,0
2023-03-22T06:43:37.555Z,0
2023-03-22T06:44:37.554Z,0
2023-03-22T06:45:37.544Z,0
2023-03-22T06:46:37.568Z,0
2023-03-22T06:47:37.556Z,0
2023-03-22T06:48:37.558Z,0
2023-03-22T06:49:37.567Z,0
2023-03-22T06:50:37.762Z,0
2023-03-22T06:51:37.558Z,0
2023-03-22T06:52:37.575Z,4.5
2023-03-22T06:53:37.581Z,2.4000000000000004
2023-03-22T06:54:37.569Z,0
2023-03-22T06:55:37.570Z,0
2023-03-22T06:56:37.567Z,0
2023-03-22T06:57:37.573Z,0
2023-03-22T06:58:37.571Z,0
2023-03-22T06:59:37.571Z,0
2023-03-22T07:00:37.794Z,0
2023-03-22T07:01:37.612Z,0
2023-03-22T07:02:37.579Z,0
2023-03-22T07:03:37.572Z,0
2023-03-22T07:04:37.606Z,0
2023-03-22T07:05:37.579Z,0
2023-03-22T07:06:37.620Z,0
2023-03-22T07:07:37.567Z,0
2023-03-22T07:08:37.625Z,0
2023-03-22T07:09:37.584Z,0
2023-03-22T07:10:37.826Z,0
2023-03-22T07:11:37.590Z,0
2023-03-22T07:12:37.597Z,0
2023-03-22T07:13:37.595Z,0
2023-03-22T07:14:37.583Z,0
2023-03-22T07:15:37.640Z,0
2023-03-22T07:16:37.591Z,0
2023-03-22T07:17:37.593Z,0
2023-03-22T07:18:37.583Z,0
2023-03-22T07:19:37.589Z,0
2023-03-22T07:20:37.742Z,0
2023-03-22T07:21:37.590Z,0
2023-03-22T07:22:37.591Z,2.8000000000000003
2023-03-22T07:23:37.611Z,0
2023-03-22T07:24:44.741Z,0
2023-03-22T07:25:37.592Z,0
2023-03-22T07:26:37.619Z,4.800000000000001
2023-03-22T07:27:37.599Z,4.4
2023-03-22T07:28:37.586Z,3.6
2023-03-22T07:29:37.678Z,0.6000000000000001
2023-03-22T07:30:37.973Z,0
2023-03-22T07:31:37.600Z,0
2023-03-22T07:32:37.670Z,2.5
2023-03-22T07:33:37.591Z,5.800000000000001
2023-03-22T07:34:37.591Z,0
2023-03-22T07:35:37.621Z,0
2023-03-22T07:36:37.609Z,0
2023-03-22T07:37:37.610Z,2.6
2023-03-22T07:38:37.607Z,0
2023-03-22T07:39:37.626Z,0
2023-03-22T07:40:37.825Z,0
2023-03-22T07:41:37.595Z,0
2023-03-22T07:42:37.578Z,1.8
2023-03-22T07:43:50.985Z,0
2023-03-22T07:44:37.624Z,0
2023-03-22T07:45:37.615Z,0
2023-03-22T07:46:37.715Z,0
2023-03-22T07:47:41.292Z,0
2023-03-22T07:48:37.626Z,0
2023-03-22T07:49:37.624Z,0
2023-03-22T07:50:38.024Z,0
2023-03-22T07:51:37.624Z,0
2023-03-22T07:52:37.617Z,0
2023-03-22T07:53:37.614Z,0
2023-03-22T07:54:37.615Z,0
2023-03-22T07:55:37.622Z,0
2023-03-22T07:56:37.682Z,2
2023-03-22T07:57:37.631Z,0
2023-03-22T07:58:37.697Z,0
2023-03-22T07:59:39.951Z,0
2023-03-22T08:00:38.164Z,0
2023-03-22T08:01:37.654Z,0
2023-03-22T08:02:37.673Z,0
2023-03-22T08:03:37.634Z,0
2023-03-22T08:04:37.622Z,0
2023-03-22T08:05:37.609Z,0
2023-03-22T08:06:37.640Z,0
2023-03-22T08:07:37.656Z,0
2023-03-22T08:08:37.623Z,0
2023-03-22T08:09:37.634Z,0
2023-03-22T08:10:37.868Z,0
2023-03-22T08:11:37.621Z,0
2023-03-22T08:12:37.642Z,0
2023-03-22T08:13:37.627Z,0
2023-03-22T08:14:37.632Z,0.8
2023-03-22T08:15:37.880Z,0
2023-03-22T08:16:37.668Z,6.300000000000001
2023-03-22T08:17:37.622Z,2.8000000000000003
2023-03-22T08:18:37.627Z,2.1
2023-03-22T08:19:37.625Z,0
2023-03-22T08:20:38.153Z,3.5
2023-03-22T08:21:37.628Z,5.4
2023-03-22T08:22:37.630Z,0
2023-03-22T08:23:41.988Z,2.3000000000000003
2023-03-22T08:24:37.625Z,0
2023-03-22T08:25:37.628Z,0
2023-03-22T08:26:37.672Z,2.4000000000000004
2023-03-22T08:27:37.625Z,0
2023-03-22T08:28:37.645Z,0
2023-03-22T08:29:37.626Z,0
2023-03-22T08:30:37.942Z,0
2023-03-22T08:31:37.669Z,0
2023-03-22T08:32:37.631Z,0
2023-03-22T08:33:37.662Z,2.9000000000000004
2023-03-22T08:34:37.645Z,0
2023-03-22T08:35:38.117Z,0
2023-03-22T08:36:37.627Z,0
2023-03-22T08:37:37.628Z,2.2
2023-03-22T08:38:37.622Z,2.6
2023-03-22T08:39:37.623Z,0
2023-03-22T08:40:37.692Z,5.800000000000001
2023-03-22T08:41:37.631Z,2.1
2023-03-22T08:42:37.648Z,5.300000000000001
2023-03-22T08:43:37.629Z,2.1
2023-03-22T08:44:37.670Z,3.5
2023-03-22T08:45:38.052Z,0.30000000000000004
2023-03-22T08:46:37.635Z,0
2023-03-22T08:47:37.630Z,1.3
2023-03-22T08:48:37.628Z,0
2023-03-22T08:49:37.632Z,3.7
2023-03-22T08:50:37.624Z,4.3
2023-03-22T08:51:38.622Z,6.1000000000000005
2023-03-22T08:52:37.635Z,0
2023-03-22T08:53:37.717Z,2.7
2023-03-22T08:54:37.624Z,2.7
2023-03-22T08:55:38.007Z,2
2023-03-22T08:56:37.644Z,1.6
2023-03-22T08:57:38.827Z,0
2023-03-22T08:58:37.627Z,3.4000000000000004
2023-03-22T08:59:37.680Z,0.9
2023-03-22T09:00:47.994Z,6.1000000000000005
2023-03-22T09:01:37.808Z,7.4
2023-03-22T09:02:37.632Z,3.6
2023-03-22T09:03:37.707Z,2.2
2023-03-22T09:04:37.789Z,2.9000000000000004
2023-03-22T09:05:37.997Z,0
2023-03-22T09:06:37.646Z,3.3000000000000003
2023-03-22T09:07:37.639Z,0
2023-03-22T09:08:37.640Z,0
2023-03-22T09:09:37.640Z,0
2023-03-22T09:10:37.642Z,0
2023-03-22T09:11:37.636Z,0
2023-03-22T09:12:37.648Z,1.7000000000000002
2023-03-22T09:13:37.734Z,0.6000000000000001
2023-03-22T09:14:37.648Z,0
2023-03-22T09:15:38.071Z,3.1
2023-03-22T09:16:37.749Z,2.4000000000000004
2023-03-22T09:17:37.648Z,1.7000000000000002
2023-03-22T09:18:37.660Z,0
2023-03-22T09:19:37.660Z,3.8000000000000003
2023-03-22T09:20:37.664Z,6.800000000000001
2023-03-22T09:21:37.661Z,2.4000000000000004
2023-03-22T09:22:37.650Z,5
2023-03-22T09:23:37.834Z,2
2023-03-22T09:24:37.648Z,4
2023-03-22T09:25:38.016Z,2.7
2023-03-22T09:26:37.649Z,3.7
2023-03-22T09:27:37.656Z,1.1
2023-03-22T09:28:37.672Z,5.2
2023-03-22T09:29:37.640Z,3.7
2023-03-22T09:30:38.089Z,1.9000000000000001
2023-03-22T09:31:37.758Z,4.6000000000000005
2023-03-22T09:32:38.559Z,0.4
2023-03-22T09:33:37.657Z,2.7
2023-03-22T09:34:37.655Z,4.6000000000000005
2023-03-22T09:35:37.697Z,3.1
2023-03-22T09:36:37.651Z,4.800000000000001
2023-03-22T09:37:37.655Z,3.5
2023-03-22T09:38:37.659Z,2.1
2023-03-22T09:39:37.667Z,1.4000000000000001
2023-03-22T09:40:37.656Z,0.8
2023-03-22T09:41:37.659Z,1.5
2023-03-22T09:42:37.670Z,0
2023-03-22T09:43:37.658Z,2.7
2023-03-22T09:44:37.665Z,2.5
2023-03-22T09:45:37.806Z,0
2023-03-22T09:46:37.679Z,0
2023-03-22T09:47:45.601Z,2.9000000000000004
2023-03-22T09:48:37.673Z,5.800000000000001
2023-03-22T09:49:50.674Z,2.3000000000000003
2023-03-22T09:50:37.657Z,2
2023-03-22T09:51:37.663Z,0
2023-03-22T09:52:37.663Z,0
2023-03-22T09:53:37.662Z,0
2023-03-22T09:54:37.666Z,1.2000000000000002
2023-03-22T09:55:37.885Z,4.1000000000000005
2023-03-22T09:56:37.665Z,2.5
2023-03-22T09:57:37.671Z,1.6
2023-03-22T09:58:37.730Z,0.9
2023-03-22T09:59:37.678Z,3.7
2023-03-22T10:00:37.754Z,1.8
2023-03-22T10:01:38.044Z,3.2
2023-03-22T10:02:37.735Z,2.3000000000000003
2023-03-22T10:03:37.667Z,6.5
2023-03-22T10:04:37.882Z,3.6
2023-03-22T10:05:37.688Z,4.2
2023-03-22T10:06:37.683Z,0
2023-03-22T10:07:37.693Z,0
2023-03-22T10:08:37.673Z,1.8
2023-03-22T10:09:37.674Z,0
2023-03-22T10:10:37.670Z,5.1000000000000005
2023-03-22T10:11:37.679Z,2.1
2023-03-22T10:12:37.675Z,0
2023-03-22T10:13:37.676Z,0
2023-03-22T10:14:37.685Z,1.3
2023-03-22T10:15:37.744Z,0
2023-03-22T10:16:37.737Z,0
2023-03-22T10:17:37.678Z,0
2023-03-22T10:18:37.680Z,1.5
2023-03-22T10:19:37.696Z,0
2023-03-22T10:20:37.694Z,1.4000000000000001
2023-03-22T10:21:37.683Z,0
2023-03-22T10:22:37.683Z,0
2023-03-22T10:23:37.678Z,6.300000000000001
2023-03-22T10:24:37.670Z,3.5
2023-03-22T10:25:38.161Z,4.7
2023-03-22T10:26:37.678Z,0
2023-03-22T10:27:37.689Z,0.6000000000000001
2023-03-22T10:28:37.684Z,2.7
2023-03-22T10:29:37.726Z,2.4000000000000004
2023-03-22T10:30:37.776Z,3.9000000000000004
2023-03-22T10:31:37.754Z,0
2023-03-22T10:32:47.975Z,3.2
2023-03-22T10:33:37.685Z,3.7
2023-03-22T10:34:37.678Z,3.1
2023-03-22T10:35:37.765Z,3.5
2023-03-22T10:36:37.721Z,3
2023-03-22T10:37:37.683Z,1.7000000000000002
2023-03-22T10:38:37.691Z,1.1
2023-03-22T10:39:39.349Z,0
2023-03-22T10:40:37.679Z,3.9000000000000004
2023-03-22T10:41:37.694Z,4.3
2023-03-22T10:42:37.698Z,0
2023-03-22T10:43:37.697Z,0
2023-03-22T10:44:37.709Z,0
2023-03-22T10:45:37.752Z,0
2023-03-22T10:46:37.749Z,0
2023-03-22T10:47:37.704Z,1.2000000000000002
2023-03-22T10:48:37.721Z,0.7000000000000001
2023-03-22T10:49:37.710Z,0
2023-03-22T10:50:37.711Z,0
2023-03-22T10:51:37.695Z,3
2023-03-22T10:52:37.727Z,3.6
2023-03-22T10:53:37.716Z,3.9000000000000004
2023-03-22T10:54:37.700Z,0
2023-03-22T10:55:37.748Z,2
2023-03-22T10:56:37.697Z,2.3000000000000003
2023-03-22T10:57:37.694Z,5.1000000000000005
2023-03-22T10:58:37.706Z,5.7
2023-03-22T10:59:37.703Z,3.6
2023-03-22T11:00:40.658Z,3.2
2023-03-22T11:01:37.824Z,0.30000000000000004
2023-03-22T11:02:37.846Z,0
2023-03-22T11:03:37.718Z,4.9
2023-03-22T11:04:37.715Z,5.300000000000001
2023-03-22T11:05:38.150Z,2.5
2023-03-22T11:06:37.704Z,5.4
2023-03-22T11:07:37.701Z,3.7
2023-03-22T11:08:37.732Z,6.1000000000000005
2023-03-22T11:09:37.718Z,4.5
2023-03-22T11:10:37.798Z,5.1000000000000005
2023-03-22T11:11:37.709Z,3.1
2023-03-22T11:12:39.909Z,0.7000000000000001
2023-03-22T11:13:37.713Z,0
2023-03-22T11:14:37.710Z,3.3000000000000003
2023-03-22T11:15:37.960Z,3.2
2023-03-22T11:16:37.782Z,4.5
2023-03-22T11:17:37.716Z,5.2
2023-03-22T11:18:37.718Z,1.9000000000000001
2023-03-22T11:19:37.716Z,0
2023-03-22T11:20:37.834Z,7.1000000000000005
2023-03-22T11:21:37.708Z,8
2023-03-22T11:22:37.736Z,2.1
2023-03-22T11:23:37.726Z,3
2023-03-22T11:24:37.738Z,1.6
2023-03-22T11:25:37.740Z,0
2023-03-22T11:26:39.106Z,5
2023-03-22T11:27:37.719Z,3.2
2023-03-22T11:28:37.725Z,0
2023-03-22T11:29:37.725Z,0
2023-03-22T11:30:37.719Z,2.3000000000000003
2023-03-22T11:31:37.782Z,4.800000000000001
2023-03-22T11:32:37.777Z,4.7
2023-03-22T11:33:37.750Z,3.6
2023-03-22T11:34:37.726Z,4.800000000000001
2023-03-22T11:35:37.755Z,3.6
2023-03-22T11:36:37.723Z,0
2023-03-22T11:37:37.730Z,2.4000000000000004
2023-03-22T11:38:37.724Z,0
2023-03-22T11:39:37.734Z,2.7
2023-03-22T11:40:37.813Z,1.7000000000000002
2023-03-22T11:41:37.742Z,0
2023-03-22T11:42:37.733Z,0
2023-03-22T11:43:37.732Z,0
2023-03-22T11:44:37.731Z,0
2023-03-22T11:45:37.789Z,0
2023-03-22T11:46:37.791Z,0
2023-03-22T11:47:37.872Z,5.1000000000000005
2023-03-22T11:48:37.851Z,5.6000000000000005
2023-03-22T11:49:37.733Z,2.7
2023-03-22T11:50:37.796Z,3
2023-03-22T11:51:37.735Z,0
2023-03-22T11:52:37.749Z,0
2023-03-22T11:53:37.735Z,0
2023-03-22T11:54:37.738Z,0
2023-03-22T11:55:37.829Z,0
2023-03-22T11:56:37.757Z,0
2023-03-22T11:57:37.725Z,4.9
2023-03-22T11:58:37.745Z,5.4
2023-03-22T11:59:37.754Z,1.2000000000000002
2023-03-22T12:00:37.736Z,1.9000000000000001
2023-03-22T12:01:37.753Z,0
2023-03-22T12:02:37.857Z,0
2023-03-22T12:03:39.394Z,1.8
2023-03-22T12:04:37.785Z,0
2023-03-22T12:05:37.838Z,0
2023-03-22T12:06:37.799Z,3
2023-03-22T12:07:37.761Z,1.5
2023-03-22T12:08:37.745Z,0
2023-03-22T12:09:37.749Z,0
2023-03-22T12:10:37.746Z,0
2023-03-22T12:11:37.758Z,3
2023-03-22T12:12:37.805Z,0
2023-03-22T12:13:37.765Z,0
2023-03-22T12:14:37.751Z,0
2023-03-22T12:15:37.774Z,0
2023-03-22T12:16:37.783Z,0
2023-03-22T12:17:37.761Z,0
2023-03-22T12:18:37.763Z,0
2023-03-22T12:19:37.782Z,0
2023-03-22T12:20:38.214Z,4
2023-03-22T12:21:37.754Z,1.9000000000000001
2023-03-22T12:22:37.764Z,5
2023-03-22T12:23:37.779Z,7.1000000000000005
2023-03-22T12:24:37.760Z,3.9000000000000004
2023-03-22T12:25:37.785Z,2.3000000000000003
2023-03-22T12:26:37.766Z,0
2023-03-22T12:27:37.759Z,5.1000000000000005
2023-03-22T12:28:37.778Z,4.4
2023-03-22T12:29:37.769Z,5.800000000000001
2023-03-22T12:30:37.769Z,2.2
2023-03-22T12:31:37.856Z,0
2023-03-22T12:32:37.838Z,0
2023-03-22T12:33:37.769Z,0
2023-03-22T12:34:37.763Z,5.1000000000000005
2023-03-22T12:35:37.920Z,2.2
2023-03-22T12:36:37.766Z,0
2023-03-22T12:37:37.798Z,4.7
2023-03-22T12:38:37.767Z,3.7
2023-03-22T12:39:37.774Z,3.6
2023-03-22T12:40:37.820Z,2.8000000000000003
2023-03-22T12:41:37.775Z,1.4000000000000001
2023-03-22T12:42:44.170Z,0
2023-03-22T12:43:37.782Z,0
2023-03-22T12:44:37.796Z,0
2023-03-22T12:45:37.923Z,0
2023-03-22T12:46:37.845Z,0
2023-03-22T12:47:37.806Z,0
2023-03-22T12:48:37.903Z,0
2023-03-22T12:49:37.785Z,0
2023-03-22T12:50:37.833Z,0
2023-03-22T12:51:37.787Z,4.7
2023-03-22T12:52:45.063Z,6.4
2023-03-22T12:53:37.792Z,0
2023-03-22T12:54:37.804Z,0
2023-03-22T12:55:37.800Z,0
2023-03-22T12:56:37.793Z,0
2023-03-22T12:57:37.785Z,1.2000000000000002
2023-03-22T12:58:37.802Z,0
2023-03-22T12:59:37.798Z,1
2023-03-22T13:00:38.070Z,0
2023-03-22T13:01:37.956Z,4.2
2023-03-22T13:02:37.922Z,0
2023-03-22T13:03:37.884Z,0
2023-03-22T13:04:37.790Z,0
2023-03-22T13:05:37.966Z,0
2023-03-22T13:06:37.803Z,0
2023-03-22T13:07:37.794Z,0
2023-03-22T13:08:37.808Z,0
2023-03-22T13:09:37.799Z,0
2023-03-22T13:10:37.851Z,0
2023-03-22T13:11:37.800Z,0
2023-03-22T13:12:37.825Z,6.800000000000001
2023-03-22T13:13:37.810Z,7.2
2023-03-22T13:14:37.798Z,5.2
2023-03-22T13:15:42.416Z,7.5
2023-03-22T13:16:37.850Z,4
2023-03-22T13:17:37.869Z,7
2023-03-22T13:18:37.832Z,6.1000000000000005
2023-03-22T13:19:37.829Z,4.800000000000001
2023-03-22T13:20:38.010Z,7.1000000000000005
2023-03-22T13:21:37.811Z,6.9
2023-03-22T13:22:37.901Z,5.7
2023-03-22T13:23:37.813Z,1.7000000000000002
2023-03-22T13:24:37.833Z,4.5
2023-03-22T13:25:38.079Z,3.9000000000000004
2023-03-22T13:26:37.823Z,0.7000000000000001
2023-03-22T13:27:37.873Z,0
2023-03-22T13:28:37.814Z,3
2023-03-22T13:29:37.815Z,1
2023-03-22T13:30:37.812Z,0.6000000000000001
2023-03-22T13:31:37.858Z,0
2023-03-22T13:32:37.882Z,0
2023-03-22T13:33:37.820Z,0
2023-03-22T13:34:37.809Z,0
2023-03-22T13:35:37.915Z,0
2023-03-22T13:36:37.809Z,0
2023-03-22T13:37:37.874Z,0
2023-03-22T13:38:37.817Z,0
2023-03-22T13:39:37.815Z,1.4000000000000001
2023-03-22T13:40:38.099Z,2.5
2023-03-22T13:41:37.809Z,5
2023-03-22T13:42:37.800Z,2.3000000000000003
2023-03-22T13:43:37.806Z,3.9000000000000004
2023-03-22T13:44:37.817Z,6.800000000000001